Боухантеры.ру

Информация о пользователе

Привет, Гость! Войдите или зарегистрируйтесь.


Вы здесь » Боухантеры.ру » Снаряжение боухантера


Снаряжение боухантера

Тем 121 страница 140 из 140

Тема Ответов Просмотров Последнее сообщение
6 97 2020-01-05 20:26:32  Владимир
3 78 2019-12-31 17:13:50  Юджин
123 Про АТА арбалета  Владимир
13 91 2019-12-29 10:28:55  Владимир
11 130 2019-12-28 16:13:27  Александр Курашёв
13 156 2019-12-28 06:11:28  Василий
2 57 2019-12-27 23:26:46  Bows
1 29 2019-12-27 21:56:10  Александр Курашёв
1 58 2019-12-26 00:14:32  Тот Самый Олег
129 Valkyrie наконечник валькирия  Тот Самый Олег
6 100 2019-12-25 17:04:56  Тот Самый Олег
15 212 2019-12-25 03:29:13  Тот Самый Олег
131 RMSG CUTTHROAT BROADHEAD  Тот Самый Олег
9 122 2019-12-24 23:00:04  Тот Самый Олег
132 Rage Hypodermic  Тот Самый Олег
1 35 2019-12-24 19:01:38  Foxshooter
133 German Kinetics  Тот Самый Олег
3 107 2019-12-24 16:33:33  Юджин
134 Модный вискербискет  Тот Самый Олег
2 47 2019-12-23 05:16:53  Тот Самый Олег
2 30 2019-12-23 01:18:48  Александр Курашёв
136 Кифару Kifaru рюкзак  Тот Самый Олег
1 27 2019-12-22 21:42:19  Тот Самый Олег
5 93 2019-12-22 16:00:09  Sanarcher
4 87 2019-12-22 12:44:30  Sanarcher
139 IQ Pro Hunter Sight  Владимир
12 99 2019-12-22 12:22:02  Sanarcher
3 94 2019-12-20 23:07:42  ОлегычЪ

Вы здесь » Боухантеры.ру » Снаряжение боухантера